Time;durP1;ratioP1;P1;durP2;ratioP2;P2;SDS_P1;SDS_P2;PMS_P1;PMS_P2;Temp;Humidity;BMP_temperature;BMP_pressure;BME280_temperature;BME280_humidity;BME280_pressure;Samples;Min_cycle;Max_cycle;Signal;HPM_P1;HPM_P2
2021/09/27 00:00:11;;;;;;;9.15;7.28;;;;;;;;;;143734;669;46018;-53
2021/09/27 00:02:38;;;;;;;8.90;7.05;;;;;;;;;;143733;591;46022;-54
2021/09/27 00:05:07;;;;;;;8.32;6.40;;;;;;;;;;143732;776;45912;-54
2021/09/27 00:07:34;;;;;;;12.37;7.35;;;;;;;;;;143735;581;45023;-54
2021/09/27 00:10:02;;;;;;;8.70;7.47;;;;;;;;;;143732;564;46018;-53
2021/09/27 00:12:29;;;;;;;8.98;7.87;;;;;;;;;;143734;564;46022;-53
2021/09/27 00:14:56;;;;;;;8.35;7.20;;;;;;;;;;143729;599;45912;-54
2021/09/27 00:17:23;;;;;;;10.63;7.82;;;;;;;;;;143735;577;46022;-54
2021/09/27 00:19:50;;;;;;;12.45;7.18;;;;;;;;;;143733;619;46019;-53
2021/09/27 00:22:17;;;;;;;10.15;8.02;;;;;;;;;;143731;570;46022;-53
2021/09/27 00:24:44;;;;;;;9.05;7.60;;;;;;;;;;143731;580;45912;-53
2021/09/27 00:27:11;;;;;;;8.35;7.32;;;;;;;;;;143734;631;45023;-54
2021/09/27 00:29:39;;;;;;;11.12;7.93;;;;;;;;;;143731;596;46018;-53
2021/09/27 00:32:06;;;;;;;9.80;6.97;;;;;;;;;;143735;598;46022;-53
2021/09/27 00:34:33;;;;;;;8.32;7.50;;;;;;;;;;143732;635;46013;-53
2021/09/27 00:37:00;;;;;;;10.98;7.75;;;;;;;;;;143735;587;46010;-53
2021/09/27 00:39:27;;;;;;;7.80;6.47;;;;;;;;;;143733;895;46018;-54
2021/09/27 00:41:54;;;;;;;11.60;8.10;;;;;;;;;;143734;593;46022;-53
2021/09/27 00:44:21;;;;;;;8.88;7.00;;;;;;;;;;143735;567;45912;-54
2021/09/27 00:46:49;;;;;;;12.95;7.25;;;;;;;;;;143735;796;46010;-54
2021/09/27 00:49:16;;;;;;;10.13;7.18;;;;;;;;;;143731;746;46020;-54
2021/09/27 00:51:45;;;;;;;11.70;8.13;;;;;;;;;;143732;863;46023;-53
2021/09/27 00:54:21;;;;;;;8.77;6.80;;;;;;;;;;143730;624;45912;-53
2021/09/27 00:56:52;;;;;;;8.40;6.62;;;;;;;;;;143735;673;45031;-53
2021/09/27 00:59:22;;;;;;;9.82;7.28;;;;;;;;;;143727;582;46018;-53
2021/09/27 01:01:49;;;;;;;8.68;7.70;;;;;;;;;;143729;566;46022;-54
2021/09/27 01:04:16;;;;;;;9.50;6.95;;;;;;;;;;143727;572;46012;-53
2021/09/27 01:07:21;;;;;;;8.63;6.97;;;;;;;;;;143733;603;45023;-53
2021/09/27 01:10:31;;;;;;;8.95;7.32;;;;;;;;;;143730;564;46020;-53
2021/09/27 01:13:43;;;;;;;10.60;7.10;;;;;;;;;;143729;640;46013;-53
2021/09/27 01:16:43;;;;;;;8.80;7.62;;;;;;;;;;143725;564;46012;-54
2021/09/27 01:19:56;;;;;;;11.07;7.43;;;;;;;;;;143730;566;46022;-53
2021/09/27 01:22:59;;;;;;;8.13;6.90;;;;;;;;;;143729;603;46020;-53
2021/09/27 01:25:58;;;;;;;8.15;6.78;;;;;;;;;;143731;756;46013;-53
2021/09/27 01:29:06;;;;;;;10.75;6.72;;;;;;;;;;143725;573;46018;-53
2021/09/27 01:32:13;;;;;;;11.12;7.78;;;;;;;;;;143732;596;45024;-53
2021/09/27 01:35:10;;;;;;;8.23;6.90;;;;;;;;;;143730;602;46019;-53
2021/09/27 01:38:24;;;;;;;9.88;7.20;;;;;;;;;;143729;793;46012;-54
2021/09/27 01:41:31;;;;;;;8.57;6.80;;;;;;;;;;143728;591;46012;-54
2021/09/27 01:44:45;;;;;;;14.30;7.82;;;;;;;;;;143730;581;46012;-54
2021/09/27 01:47:26;;;;;;;9.60;7.00;;;;;;;;;;143726;662;47018;-53
2021/09/27 01:50:17;;;;;;;10.80;7.35;;;;;;;;;;143725;619;47012;-53
2021/09/27 01:52:59;;;;;;;7.78;6.37;;;;;;;;;;143727;581;45910;-53
2021/09/27 01:56:01;;;;;;;8.20;6.70;;;;;;;;;;143729;583;46022;-53
2021/09/27 01:58:51;;;;;;;10.23;6.97;;;;;;;;;;143726;564;46023;-53
2021/09/27 02:02:21;;;;;;;7.90;6.93;;;;;;;;;;143731;665;46022;-53
2021/09/27 02:05:28;;;;;;;10.35;7.10;;;;;;;;;;143727;611;45910;-53
2021/09/27 02:08:27;;;;;;;10.02;7.12;;;;;;;;;;143730;767;45024;-54
2021/09/27 02:11:27;;;;;;;8.70;7.10;;;;;;;;;;143727;569;46019;-53
2021/09/27 02:14:24;;;;;;;9.18;7.30;;;;;;;;;;143729;564;46022;-53
2021/09/27 02:17:07;;;;;;;11.65;7.78;;;;;;;;;;143728;651;45908;-53
2021/09/27 02:20:13;;;;;;;11.75;7.35;;;;;;;;;;143728;616;46022;-53
2021/09/27 02:23:05;;;;;;;8.93;7.07;;;;;;;;;;143724;610;49018;-54
2021/09/27 02:25:41;;;;;;;11.80;7.03;;;;;;;;;;143728;563;46012;-53
2021/09/27 02:28:19;;;;;;;10.85;7.32;;;;;;;;;;143726;699;46012;-53
2021/09/27 02:31:16;;;;;;;10.10;7.85;;;;;;;;;;143732;902;45027;-53
2021/09/27 02:34:03;;;;;;;9.80;7.28;;;;;;;;;;143728;613;46019;-53
2021/09/27 02:36:38;;;;;;;11.63;7.32;;;;;;;;;;143726;606;46022;-54
2021/09/27 02:39:39;;;;;;;10.63;8.18;;;;;;;;;;143728;601;45910;-54
2021/09/27 02:42:51;;;;;;;11.48;6.87;;;;;;;;;;143730;646;45023;-55
2021/09/27 02:45:19;;;;;;;15.45;8.98;;;;;;;;;;143726;590;47018;-55
2021/09/27 02:48:32;;;;;;;10.15;7.60;;;;;;;;;;143728;639;46022;-55
2021/09/27 02:50:59;;;;;;;9.07;7.03;;;;;;;;;;143726;631;45908;-54
2021/09/27 02:53:26;;;;;;;12.82;8.60;;;;;;;;;;143728;576;46010;-54
2021/09/27 02:56:29;;;;;;;15.90;9.07;;;;;;;;;;143726;605;46020;-54
2021/09/27 02:59:28;;;;;;;11.93;8.77;;;;;;;;;;143725;804;46023;-55
2021/09/27 03:02:43;;;;;;;12.02;9.32;;;;;;;;;;143727;612;46012;-55
2021/09/27 03:05:43;;;;;;;13.52;7.40;;;;;;;;;;143729;585;46023;-54
2021/09/27 03:08:47;;;;;;;10.45;7.15;;;;;;;;;;143727;636;46022;-54
2021/09/27 03:11:47;;;;;;;12.65;7.50;;;;;;;;;;143727;595;46022;-54
2021/09/27 03:14:57;;;;;;;18.90;9.95;;;;;;;;;;143725;571;46018;-54
2021/09/27 03:18:02;;;;;;;26.27;10.68;;;;;;;;;;143727;611;46012;-54
2021/09/27 03:21:13;;;;;;;13.23;8.20;;;;;;;;;;143728;616;46018;-54
2021/09/27 03:24:23;;;;;;;26.73;15.13;;;;;;;;;;143726;585;46920;-53
2021/09/27 03:27:49;;;;;;;29.73;17.17;;;;;;;;;;143727;608;45908;-54
2021/09/27 03:30:41;;;;;;;32.30;18.23;;;;;;;;;;143730;589;45024;-55
2021/09/27 03:33:42;;;;;;;25.70;14.23;;;;;;;;;;143730;564;46027;-54
2021/09/27 03:36:49;;;;;;;17.70;12.82;;;;;;;;;;143726;672;46012;-54
2021/09/27 03:39:57;;;;;;;21.20;14.93;;;;;;;;;;143726;582;46018;-53
2021/09/27 03:42:49;;;;;;;21.62;12.82;;;;;;;;;;143733;615;46012;-54
2021/09/27 03:46:19;;;;;;;24.35;14.65;;;;;;;;;;143727;595;46020;-53
2021/09/27 03:49:18;;;;;;;47.58;23.62;;;;;;;;;;143727;635;46013;-54
2021/09/27 03:52:00;;;;;;;44.35;23.20;;;;;;;;;;143728;602;45907;-54
2021/09/27 03:54:42;;;;;;;20.90;12.77;;;;;;;;;;143734;614;46010;-54
2021/09/27 03:57:16;;;;;;;29.05;18.65;;;;;;;;;;143729;597;46018;-54
2021/09/27 04:00:09;;;;;;;17.83;13.00;;;;;;;;;;143726;599;46022;-54
2021/09/27 04:02:59;;;;;;;24.30;15.63;;;;;;;;;;143728;823;45909;-54
2021/09/27 04:05:48;;;;;;;33.88;16.67;;;;;;;;;;143731;565;45023;-55
2021/09/27 04:08:37;;;;;;;22.42;15.60;;;;;;;;;;143727;659;46022;-54
2021/09/27 04:11:14;;;;;;;24.35;16.77;;;;;;;;;;143726;679;46023;-54
2021/09/27 04:14:23;;;;;;;29.33;20.58;;;;;;;;;;143725;574;46018;-54
2021/09/27 04:17:42;;;;;;;33.05;20.90;;;;;;;;;;143732;564;46022;-54
2021/09/27 04:20:28;;;;;;;38.42;21.30;;;;;;;;;;143728;639;46021;-54
2021/09/27 04:23:23;;;;;;;27.10;17.62;;;;;;;;;;143726;759;46917;-53
2021/09/27 04:26:19;;;;;;;35.47;20.00;;;;;;;;;;143727;610;46019;-54
2021/09/27 04:29:28;;;;;;;32.58;19.12;;;;;;;;;;143731;590;46022;-55
2021/09/27 04:32:22;;;;;;;27.60;16.20;;;;;;;;;;143728;598;46018;-53
2021/09/27 04:35:34;;;;;;;25.45;15.38;;;;;;;;;;143724;604;46917;-53
2021/09/27 04:38:07;;;;;;;27.48;14.45;;;;;;;;;;143727;570;46012;-54
2021/09/27 04:41:14;;;;;;;30.55;17.58;;;;;;;;;;143728;570;46011;-53
2021/09/27 04:44:29;;;;;;;33.08;18.73;;;;;;;;;;143726;564;46021;-54
2021/09/27 04:47:10;;;;;;;23.60;15.27;;;;;;;;;;143722;616;48012;-54
2021/09/27 04:50:04;;;;;;;24.10;15.10;;;;;;;;;;143727;629;46012;-53
2021/09/27 04:53:15;;;;;;;28.55;13.98;;;;;;;;;;143733;587;45022;-55
2021/09/27 04:56:16;;;;;;;26.75;14.38;;;;;;;;;;143727;588;46019;-54
2021/09/27 04:59:13;;;;;;;20.98;15.82;;;;;;;;;;143726;611;46022;-54
2021/09/27 05:02:17;;;;;;;25.88;17.05;;;;;;;;;;143728;612;45909;-53
2021/09/27 05:04:50;;;;;;;25.12;16.67;;;;;;;;;;143729;620;46023;-54
2021/09/27 05:08:02;;;;;;;25.40;16.67;;;;;;;;;;143727;573;46018;-53
2021/09/27 05:11:17;;;;;;;36.22;20.30;;;;;;;;;;143726;683;46023;-54
2021/09/27 05:14:44;;;;;;;26.85;17.83;;;;;;;;;;143727;582;46012;-54
2021/09/27 05:17:25;;;;;;;;;;;;;;;;;;143735;979;46011;-54
2021/09/27 05:20:28;;;;;;;26.92;14.90;;;;;;;;;;143735;569;46018;-53
2021/09/27 05:23:43;;;;;;;28.30;16.15;;;;;;;;;;143727;620;46917;-53
2021/09/27 05:26:40;;;;;;;32.13;17.50;;;;;;;;;;143725;579;46019;-53
2021/09/27 05:29:27;;;;;;;29.85;16.73;;;;;;;;;;143733;581;46022;-54
2021/09/27 05:32:48;;;;;;;37.53;21.67;;;;;;;;;;143729;827;47018;-54
2021/09/27 05:35:34;;;;;;;51.28;23.73;;;;;;;;;;143727;564;46022;-54
2021/09/27 05:38:56;;;;;;;52.40;23.62;;;;;;;;;;143728;669;46012;-54
2021/09/27 05:41:57;;;;;;;49.92;20.80;;;;;;;;;;143733;564;45025;-54
2021/09/27 05:44:48;;;;;;;32.88;17.27;;;;;;;;;;143730;577;46018;-53
2021/09/27 05:47:53;;;;;;;39.67;15.73;;;;;;;;;;143731;566;46012;-54
2021/09/27 05:50:30;;;;;;;26.60;14.95;;;;;;;;;;143731;619;46012;-54
2021/09/27 05:53:51;;;;;;;22.77;13.75;;;;;;;;;;143729;686;46022;-54
2021/09/27 05:57:07;;;;;;;24.63;13.43;;;;;;;;;;143729;592;47021;-55
2021/09/27 06:00:02;;;;;;;23.80;12.70;;;;;;;;;;143730;569;46012;-55
2021/09/27 06:03:13;;;;;;;28.77;13.77;;;;;;;;;;143728;599;45910;-55
2021/09/27 06:06:24;;;;;;;27.40;12.88;;;;;;;;;;143732;621;46012;-55
2021/09/27 06:09:18;;;;;;;23.92;12.43;;;;;;;;;;143729;604;46014;-55
2021/09/27 06:12:19;;;;;;;23.73;13.73;;;;;;;;;;143727;728;46013;-55
2021/09/27 06:14:48;;;;;;;29.92;13.38;;;;;;;;;;143728;604;45907;-55
2021/09/27 06:17:50;;;;;;;25.23;12.70;;;;;;;;;;143728;650;46022;-54
2021/09/27 06:20:30;;;;;;;20.88;11.05;;;;;;;;;;143728;580;46018;-55
2021/09/27 06:23:31;;;;;;;27.83;12.20;;;;;;;;;;143728;603;46012;-55
2021/09/27 06:26:15;;;;;;;23.48;11.35;;;;;;;;;;143728;599;45909;-55
2021/09/27 06:29:13;;;;;;;28.23;9.75;;;;;;;;;;143728;564;46022;-55
2021/09/27 06:31:54;;;;;;;23.50;10.45;;;;;;;;;;143728;614;46019;-55
2021/09/27 06:34:54;;;;;;;24.85;10.82;;;;;;;;;;143725;610;46022;-55
2021/09/27 06:37:24;;;;;;;18.37;9.82;;;;;;;;;;143731;592;45907;-55
2021/09/27 06:39:51;;;;;;;17.20;10.38;;;;;;;;;;143729;614;46013;-57
2021/09/27 06:42:19;;;;;;;20.33;10.20;;;;;;;;;;143728;587;46018;-56
2021/09/27 06:44:47;;;;;;;16.70;9.45;;;;;;;;;;143727;625;46917;-56
2021/09/27 06:47:15;;;;;;;17.70;8.05;;;;;;;;;;143727;567;45910;-56
2021/09/27 06:49:43;;;;;;;18.00;8.38;;;;;;;;;;143731;565;45023;-56
2021/09/27 06:52:10;;;;;;;13.30;6.87;;;;;;;;;;143726;570;46018;-57
2021/09/27 06:54:37;;;;;;;14.30;7.20;;;;;;;;;;143729;649;46023;-56
2021/09/27 06:57:04;;;;;;;16.55;8.20;;;;;;;;;;143727;687;45911;-56
2021/09/27 06:59:31;;;;;;;21.85;9.48;;;;;;;;;;143730;584;45022;-56
2021/09/27 07:01:58;;;;;;;18.85;8.68;;;;;;;;;;143727;595;46019;-57
2021/09/27 07:04:25;;;;;;;15.27;6.95;;;;;;;;;;143728;564;46023;-55
2021/09/27 07:06:52;;;;;;;10.90;6.55;;;;;;;;;;143727;586;46012;-56
2021/09/27 07:09:19;;;;;;;16.10;7.05;;;;;;;;;;143730;578;46022;-55
2021/09/27 07:11:46;;;;;;;17.55;7.15;;;;;;;;;;143727;583;46021;-55
2021/09/27 07:14:13;;;;;;;15.68;7.03;;;;;;;;;;143726;573;46918;-54
2021/09/27 07:16:41;;;;;;;16.60;8.32;;;;;;;;;;143728;581;46012;-55
2021/09/27 07:19:10;;;;;;;17.10;8.45;;;;;;;;;;143731;599;45023;-55
2021/09/27 07:21:41;;;;;;;21.77;8.50;;;;;;;;;;143728;611;46018;-55
2021/09/27 07:24:09;;;;;;;15.35;8.63;;;;;;;;;;143726;585;46023;-55
2021/09/27 07:26:37;;;;;;;20.48;8.90;;;;;;;;;;143728;612;45910;-56
2021/09/27 07:29:05;;;;;;;21.23;7.80;;;;;;;;;;143730;587;46022;-55
2021/09/27 07:31:32;;;;;;;17.00;8.30;;;;;;;;;;143728;578;46019;-56
2021/09/27 07:34:02;;;;;;;16.27;7.87;;;;;;;;;;143731;570;46012;-56
2021/09/27 07:36:29;;;;;;;18.80;8.27;;;;;;;;;;143730;602;45910;-56
2021/09/27 07:38:56;;;;;;;20.23;7.90;;;;;;;;;;143729;617;46013;-55
2021/09/27 07:41:25;;;;;;;15.25;6.28;;;;;;;;;;143728;569;46018;-55
2021/09/27 07:43:54;;;;;;;19.37;6.87;;;;;;;;;;143726;575;46022;-55
2021/09/27 07:46:21;;;;;;;17.27;6.95;;;;;;;;;;143727;666;45911;-55
2021/09/27 07:48:48;;;;;;;11.68;6.20;;;;;;;;;;143730;579;45023;-55
2021/09/27 07:51:15;;;;;;;17.62;6.43;;;;;;;;;;143726;577;46020;-55
2021/09/27 07:53:42;;;;;;;14.27;6.82;;;;;;;;;;143729;628;46012;-56
2021/09/27 07:56:10;;;;;;;15.05;7.22;;;;;;;;;;143728;619;46012;-56
2021/09/27 07:58:37;;;;;;;9.27;6.32;;;;;;;;;;143730;688;46022;-55
2021/09/27 08:01:04;;;;;;;16.35;6.62;;;;;;;;;;143728;594;46019;-55
2021/09/27 08:03:31;;;;;;;12.27;6.20;;;;;;;;;;143726;603;46919;-56
2021/09/27 08:05:58;;;;;;;12.25;6.30;;;;;;;;;;143726;564;48016;-55
2021/09/27 08:08:25;;;;;;;14.65;5.80;;;;;;;;;;143723;626;49022;-55
2021/09/27 08:10:52;;;;;;;16.15;5.43;;;;;;;;;;143730;610;46014;-56
2021/09/27 08:13:19;;;;;;;13.88;6.37;;;;;;;;;;143727;595;46022;-55
2021/09/27 08:15:53;;;;;;;14.18;7.25;;;;;;;;;;143727;580;46012;-56
2021/09/27 08:18:21;;;;;;;19.27;7.35;;;;;;;;;;143727;658;46031;-55
2021/09/27 08:20:55;;;;;;;12.70;6.32;;;;;;;;;;143727;795;46020;-55
2021/09/27 08:23:24;;;;;;;11.57;5.72;;;;;;;;;;143727;564;46022;-55
2021/09/27 08:25:53;;;;;;;11.52;5.95;;;;;;;;;;143723;634;47014;-55
2021/09/27 08:28:22;;;;;;;15.23;5.45;;;;;;;;;;143730;624;45022;-55
2021/09/27 08:30:55;;;;;;;11.50;5.50;;;;;;;;;;143729;630;46019;-55
2021/09/27 08:33:23;;;;;;;9.07;6.70;;;;;;;;;;143727;567;46023;-55
2021/09/27 08:35:52;;;;;;;11.18;5.22;;;;;;;;;;143727;602;45910;-55
2021/09/27 08:38:22;;;;;;;16.77;5.85;;;;;;;;;;143732;578;45022;-55
2021/09/27 08:41:07;;;;;;;10.77;5.53;;;;;;;;;;143728;564;46019;-55
2021/09/27 08:43:47;;;;;;;10.70;5.50;;;;;;;;;;143728;601;46918;-55
2021/09/27 08:46:38;;;;;;;9.73;4.90;;;;;;;;;;143728;569;45910;-54
2021/09/27 08:49:39;;;;;;;11.77;5.53;;;;;;;;;;143730;589;45033;-54
2021/09/27 08:52:08;;;;;;;11.32;5.85;;;;;;;;;;143728;627;46022;-54
2021/09/27 08:54:36;;;;;;;10.13;5.37;;;;;;;;;;143730;654;46920;-54
2021/09/27 08:57:42;;;;;;;7.97;4.32;;;;;;;;;;143727;619;46018;-54
2021/09/27 09:00:31;;;;;;;7.22;4.50;;;;;;;;;;143733;569;45033;-55
2021/09/27 09:03:28;;;;;;;7.20;4.53;;;;;;;;;;143730;573;46014;-55
2021/09/27 09:06:10;;;;;;;11.38;5.32;;;;;;;;;;143727;591;46022;-54
2021/09/27 09:09:05;;;;;;;8.40;4.80;;;;;;;;;;143727;672;46019;-55
2021/09/27 09:11:54;;;;;;;8.18;4.87;;;;;;;;;;143733;566;45030;-55
2021/09/27 09:14:45;;;;;;;9.77;5.00;;;;;;;;;;143728;577;46020;-54
2021/09/27 09:17:30;;;;;;;8.07;4.50;;;;;;;;;;143730;579;46023;-55
2021/09/27 09:20:00;;;;;;;7.97;5.07;;;;;;;;;;143728;618;46014;-54
2021/09/27 09:22:33;;;;;;;11.85;7.68;;;;;;;;;;143733;629;45028;-54
2021/09/27 09:25:01;;;;;;;11.23;5.93;;;;;;;;;;143727;579;47019;-55
2021/09/27 09:27:28;;;;;;;11.43;6.90;;;;;;;;;;143730;572;46012;-54
2021/09/27 09:29:55;;;;;;;14.02;5.72;;;;;;;;;;143727;741;46912;-55
2021/09/27 09:32:32;;;;;;;14.80;6.75;;;;;;;;;;143726;577;50032;-54
2021/09/27 09:35:34;;;;;;;17.15;5.90;;;;;;;;;;143729;570;46018;-54
2021/09/27 09:38:11;;;;;;;10.85;5.97;;;;;;;;;;143727;605;46022;-55
2021/09/27 09:40:58;;;;;;;15.77;6.47;;;;;;;;;;143729;612;45913;-55
2021/09/27 09:43:31;;;;;;;17.42;6.65;;;;;;;;;;143731;603;45028;-55
2021/09/27 09:46:12;;;;;;;9.50;5.65;;;;;;;;;;143727;584;46039;-54
2021/09/27 09:48:59;;;;;;;11.95;5.53;;;;;;;;;;143727;569;46022;-54
2021/09/27 09:51:37;;;;;;;12.45;6.05;;;;;;;;;;143730;575;46018;-54
2021/09/27 09:54:38;;;;;;;13.85;5.68;;;;;;;;;;143732;598;46013;-54
2021/09/27 09:57:36;;;;;;;9.70;5.43;;;;;;;;;;143727;570;47020;-55
2021/09/27 10:00:22;;;;;;;13.18;7.22;;;;;;;;;;143728;611;46022;-54
2021/09/27 10:02:53;;;;;;;10.57;5.05;;;;;;;;;;143728;569;46019;-54
2021/09/27 10:05:30;;;;;;;9.38;5.32;;;;;;;;;;143733;580;45022;-55
2021/09/27 10:07:58;;;;;;;12.10;5.60;;;;;;;;;;143732;577;46012;-55
2021/09/27 10:10:42;;;;;;;8.45;4.50;;;;;;;;;;143732;566;46012;-55
2021/09/27 10:13:54;;;;;;;12.23;5.18;;;;;;;;;;143730;579;45912;-55
2021/09/27 10:16:54;;;;;;;6.57;4.85;;;;;;;;;;143733;593;45028;-55
2021/09/27 10:19:55;;;;;;;10.75;5.18;;;;;;;;;;143730;569;46018;-55
2021/09/27 10:22:25;;;;;;;8.75;4.97;;;;;;;;;;143726;583;46920;-55
2021/09/27 10:24:55;;;;;;;16.73;4.82;;;;;;;;;;143729;578;46019;-55
2021/09/27 10:27:44;;;;;;;10.75;5.30;;;;;;;;;;143730;587;46022;-55
2021/09/27 10:30:16;;;;;;;7.55;4.53;;;;;;;;;;143729;618;46019;-55
2021/09/27 10:33:05;;;;;;;10.07;5.05;;;;;;;;;;143727;567;46023;-55
2021/09/27 10:35:46;;;;;;;14.98;5.20;;;;;;;;;;143727;564;46018;-54
2021/09/27 10:38:18;;;;;;;7.20;4.57;;;;;;;;;;143756;629;45022;-55
2021/09/27 10:40:48;;;;;;;7.22;4.62;;;;;;;;;;143757;585;45021;-53
2021/09/27 10:43:22;;;;;;;5.93;4.07;;;;;;;;;;143755;569;45920;-55
2021/09/27 10:46:02;;;;;;;7.82;4.25;;;;;;;;;;143757;583;45913;-53
2021/09/27 10:48:30;;;;;;;7.80;4.37;;;;;;;;;;143759;613;45012;-53
2021/09/27 10:51:07;;;;;;;6.03;4.30;;;;;;;;;;143755;593;45914;-55
2021/09/27 10:53:51;;;;;;;9.90;4.50;;;;;;;;;;143752;575;45920;-56
2021/09/27 10:56:51;;;;;;;10.48;4.62;;;;;;;;;;143757;611;45912;-54
2021/09/27 10:59:32;;;;;;;8.05;4.30;;;;;;;;;;143759;572;44022;-55
2021/09/27 11:02:52;;;;;;;7.87;4.62;;;;;;;;;;143750;575;45020;-54
2021/09/27 11:06:04;;;;;;;8.35;4.55;;;;;;;;;;143756;582;45918;-55
2021/09/27 11:09:11;;;;;;;10.25;4.25;;;;;;;;;;143756;579;45913;-54
2021/09/27 11:11:47;;;;;;;7.62;5.03;;;;;;;;;;143758;608;45012;-54
2021/09/27 11:14:49;;;;;;;7.62;4.20;;;;;;;;;;143758;633;45018;-54
2021/09/27 11:17:55;;;;;;;4.87;4.07;;;;;;;;;;143754;594;46023;-55
2021/09/27 11:21:06;;;;;;;8.43;4.18;;;;;;;;;;143757;582;45910;-54
2021/09/27 11:23:39;;;;;;;7.95;4.32;;;;;;;;;;143759;607;45012;-55
2021/09/27 11:26:31;;;;;;;7.25;4.53;;;;;;;;;;143757;632;45018;-54
2021/09/27 11:29:23;;;;;;;12.82;5.00;;;;;;;;;;143755;623;46012;-54
2021/09/27 11:32:37;;;;;;;5.80;3.90;;;;;;;;;;143752;688;45012;-55
2021/09/27 11:35:41;;;;;;;6.75;4.53;;;;;;;;;;143756;588;45022;-54
2021/09/27 11:38:28;;;;;;;4.47;4.03;;;;;;;;;;143729;588;46020;-55
2021/09/27 11:41:20;;;;;;;5.37;3.95;;;;;;;;;;143730;656;45920;-55
2021/09/27 11:44:05;;;;;;;7.97;4.35;;;;;;;;;;143728;631;46018;-54
2021/09/27 11:47:10;;;;;;;10.90;4.45;;;;;;;;;;143730;633;46012;-54
2021/09/27 11:53:11;;;;;;;6.62;4.30;;;;;;;;;;143729;581;46023;-54
2021/09/27 11:55:57;;;;;;;6.37;3.92;;;;;;;;;;143729;656;45910;-54
2021/09/27 11:58:39;;;;;;;6.35;4.37;;;;;;;;;;143731;582;46012;-53
2021/09/27 12:01:28;;;;;;;7.50;4.65;;;;;;;;;;143729;627;46019;-55
2021/09/27 12:04:12;;;;;;;7.20;4.50;;;;;;;;;;143729;710;46012;-55
2021/09/27 12:06:42;;;;;;;;;;;;;;;;;;143733;984;46012;-55
2021/09/27 12:09:18;;;;;;;21.15;5.37;;;;;;;;;;143736;698;46010;-55
2021/09/27 12:11:55;;;;;;;11.20;5.35;;;;;;;;;;143728;772;46020;-55
2021/09/27 12:14:26;;;;;;;8.05;4.80;;;;;;;;;;143728;640;46022;-55
2021/09/27 12:17:01;;;;;;;7.87;4.90;;;;;;;;;;143729;610;46012;-55
2021/09/27 12:19:33;;;;;;;6.50;4.25;;;;;;;;;;143730;599;46022;-55
2021/09/27 12:22:10;;;;;;;9.85;4.57;;;;;;;;;;143728;570;46019;-55
2021/09/27 12:24:42;;;;;;;8.05;4.60;;;;;;;;;;143729;613;46012;-55
2021/09/27 12:27:25;;;;;;;8.93;4.70;;;;;;;;;;143729;569;45910;-55
2021/09/27 12:30:08;;;;;;;9.00;4.75;;;;;;;;;;143732;652;46010;-55
2021/09/27 12:32:39;;;;;;;11.43;5.10;;;;;;;;;;143729;651;46027;-55
2021/09/27 12:35:17;;;;;;;11.18;5.70;;;;;;;;;;143729;648;46022;-55
2021/09/27 12:37:45;;;;;;;7.57;4.68;;;;;;;;;;143730;585;45910;-54
2021/09/27 12:40:17;;;;;;;5.57;4.43;;;;;;;;;;143732;585;45022;-55
2021/09/27 12:42:48;;;;;;;13.20;4.68;;;;;;;;;;143730;598;46018;-55
2021/09/27 12:45:54;;;;;;;6.97;4.68;;;;;;;;;;143728;579;46918;-55
2021/09/27 12:48:34;;;;;;;7.07;4.40;;;;;;;;;;143730;595;45908;-55
2021/09/27 12:51:11;;;;;;;10.52;5.43;;;;;;;;;;143728;596;46912;-54
2021/09/27 12:53:50;;;;;;;9.40;4.97;;;;;;;;;;143729;585;46018;-55
2021/09/27 12:56:18;;;;;;;9.05;4.47;;;;;;;;;;143728;585;46022;-56
2021/09/27 12:58:54;;;;;;;6.37;4.40;;;;;;;;;;143729;617;45910;-55
2021/09/27 13:01:23;;;;;;;6.28;4.87;;;;;;;;;;143733;596;45028;-55
2021/09/27 13:04:13;;;;;;;6.55;5.10;;;;;;;;;;143729;578;46018;-55
2021/09/27 13:07:05;;;;;;;7.28;4.75;;;;;;;;;;143728;569;46022;-54
2021/09/27 13:09:37;;;;;;;7.85;5.03;;;;;;;;;;143729;588;46012;-55
2021/09/27 13:12:23;;;;;;;13.27;5.22;;;;;;;;;;143728;587;46022;-55
2021/09/27 13:15:07;;;;;;;6.93;5.25;;;;;;;;;;143728;566;46019;-55
2021/09/27 13:17:38;;;;;;;6.28;4.53;;;;;;;;;;143729;585;46012;-54
2021/09/27 13:20:33;;;;;;;10.82;5.57;;;;;;;;;;143730;597;46012;-54
2021/09/27 13:23:01;;;;;;;5.40;4.47;;;;;;;;;;143730;581;46010;-54
2021/09/27 13:25:37;;;;;;;5.93;4.40;;;;;;;;;;143728;564;46020;-54
2021/09/27 13:28:15;;;;;;;7.87;4.82;;;;;;;;;;143726;581;46022;-54
2021/09/27 13:30:42;;;;;;;6.37;4.70;;;;;;;;;;143727;611;46012;-55
2021/09/27 13:33:33;;;;;;;5.97;4.95;;;;;;;;;;143732;736;45032;-55
2021/09/27 13:36:08;;;;;;;6.80;4.82;;;;;;;;;;143726;602;46018;-55
2021/09/27 13:39:04;;;;;;;5.00;4.30;;;;;;;;;;143726;576;46012;-55
2021/09/27 13:41:52;;;;;;;6.43;4.55;;;;;;;;;;143728;579;45908;-55
2021/09/27 13:44:51;;;;;;;6.18;4.97;;;;;;;;;;143729;570;45023;-53
2021/09/27 13:47:23;;;;;;;6.57;4.93;;;;;;;;;;143726;596;46018;-54
2021/09/27 13:49:51;;;;;;;6.87;4.68;;;;;;;;;;143725;582;46022;-52
2021/09/27 13:52:21;;;;;;;5.82;4.75;;;;;;;;;;143727;593;45910;-54
2021/09/27 13:54:49;;;;;;;8.35;5.10;;;;;;;;;;143729;605;46010;-53
2021/09/27 13:57:15;;;;;;;6.30;4.43;;;;;;;;;;143726;569;46018;-53
2021/09/27 13:59:44;;;;;;;5.07;4.20;;;;;;;;;;143726;570;46032;-52
2021/09/27 14:02:11;;;;;;;5.18;4.65;;;;;;;;;;143728;575;46012;-54
2021/09/27 14:04:38;;;;;;;10.75;4.85;;;;;;;;;;143728;565;46022;-53
2021/09/27 14:07:06;;;;;;;8.63;5.15;;;;;;;;;;143726;601;46020;-53
2021/09/27 14:09:33;;;;;;;6.15;4.93;;;;;;;;;;143726;610;46022;-54
2021/09/27 14:12:00;;;;;;;5.87;4.50;;;;;;;;;;143727;570;46012;-53
2021/09/27 14:14:31;;;;;;;8.73;4.60;;;;;;;;;;143730;598;46022;-54
2021/09/27 14:16:58;;;;;;;6.50;5.10;;;;;;;;;;143727;601;46910;-53
2021/09/27 14:19:26;;;;;;;8.00;5.25;;;;;;;;;;143728;605;46012;-53
2021/09/27 14:21:54;;;;;;;7.70;5.00;;;;;;;;;;143725;591;46019;-53
2021/09/27 14:24:21;;;;;;;6.20;4.78;;;;;;;;;;143727;660;46023;-53
2021/09/27 14:26:49;;;;;;;7.22;4.85;;;;;;;;;;143728;565;46018;-53
2021/09/27 14:29:16;;;;;;;7.65;4.68;;;;;;;;;;143728;583;46023;-53
2021/09/27 14:31:43;;;;;;;6.32;5.07;;;;;;;;;;143728;596;45909;-54
2021/09/27 14:34:10;;;;;;;5.05;4.28;;;;;;;;;;143730;594;45022;-53
2021/09/27 14:36:38;;;;;;;5.78;4.65;;;;;;;;;;143729;705;46019;-53
2021/09/27 14:39:05;;;;;;;8.63;4.78;;;;;;;;;;143729;580;46012;-53
2021/09/27 14:41:32;;;;;;;6.68;4.97;;;;;;;;;;143729;584;46012;-52
2021/09/27 14:43:59;;;;;;;8.63;4.97;;;;;;;;;;143730;593;45021;-53
2021/09/27 14:46:26;;;;;;;6.53;4.90;;;;;;;;;;143727;644;46018;-53
2021/09/27 14:48:53;;;;;;;5.95;5.22;;;;;;;;;;143728;595;46012;-53
2021/09/27 14:51:21;;;;;;;6.37;4.80;;;;;;;;;;143728;582;45910;-53
2021/09/27 14:53:48;;;;;;;7.90;4.78;;;;;;;;;;143734;587;46023;-53
2021/09/27 14:56:16;;;;;;;7.35;5.20;;;;;;;;;;143726;578;47020;-52
2021/09/27 14:58:43;;;;;;;7.62;4.80;;;;;;;;;;143725;613;46022;-53
2021/09/27 15:01:15;;;;;;;6.87;5.47;;;;;;;;;;143724;564;46018;-53
2021/09/27 15:03:42;;;;;;;6.75;4.72;;;;;;;;;;143727;675;46022;-54
2021/09/27 15:06:09;;;;;;;6.28;4.62;;;;;;;;;;143726;604;46019;-55
2021/09/27 15:08:36;;;;;;;10.02;5.55;;;;;;;;;;143725;601;46919;-55
2021/09/27 15:11:04;;;;;;;5.35;4.60;;;;;;;;;;143727;600;45910;-55
2021/09/27 15:13:32;;;;;;;6.82;5.40;;;;;;;;;;143731;577;45031;-54
2021/09/27 15:15:59;;;;;;;6.43;5.00;;;;;;;;;;143727;640;46018;-54
2021/09/27 15:18:28;;;;;;;6.18;4.70;;;;;;;;;;143726;571;46012;-54
2021/09/27 15:20:57;;;;;;;6.80;5.22;;;;;;;;;;143727;574;45910;-55
2021/09/27 15:23:33;;;;;;;10.77;4.82;;;;;;;;;;143730;581;45023;-54
2021/09/27 15:26:20;;;;;;;6.82;5.20;;;;;;;;;;143727;710;46026;-54
2021/09/27 15:28:48;;;;;;;7.93;5.35;;;;;;;;;;143730;564;46023;-54
2021/09/27 15:31:15;;;;;;;6.80;5.20;;;;;;;;;;143728;655;46012;-55
2021/09/27 15:33:43;;;;;;;6.43;5.22;;;;;;;;;;143728;575;46010;-54
2021/09/27 15:36:14;;;;;;;8.10;5.28;;;;;;;;;;143727;581;46019;-55
2021/09/27 15:38:44;;;;;;;9.40;5.15;;;;;;;;;;143726;569;46023;-54
2021/09/27 15:41:13;;;;;;;7.25;5.40;;;;;;;;;;143728;594;45910;-54
2021/09/27 15:43:40;;;;;;;7.18;5.37;;;;;;;;;;143731;734;45026;-54
2021/09/27 15:46:07;;;;;;;7.45;5.10;;;;;;;;;;143726;571;46018;-54
2021/09/27 15:48:34;;;;;;;8.80;5.95;;;;;;;;;;143727;574;46918;-55
2021/09/27 15:51:01;;;;;;;7.72;5.18;;;;;;;;;;143726;720;46910;-54
2021/09/27 15:53:28;;;;;;;6.95;5.37;;;;;;;;;;143730;607;45023;-55
2021/09/27 15:55:56;;;;;;;7.65;5.93;;;;;;;;;;143728;605;46018;-55
2021/09/27 15:58:23;;;;;;;7.22;5.30;;;;;;;;;;143725;698;46022;-53
2021/09/27 16:00:50;;;;;;;7.57;5.60;;;;;;;;;;143726;601;46018;-54
2021/09/27 16:03:17;;;;;;;6.62;5.90;;;;;;;;;;143730;651;46010;-54
2021/09/27 16:05:44;;;;;;;10.95;6.62;;;;;;;;;;143728;581;46019;-54